Terminal Aerodrome Forecast
Issued by NWS

Home | Current Version | Previous Version | Text Only | Print | Product List | Glossary Off
Versions: 1 2 3 4 5 6 7 8 9 10 11 12 13 14 15 16 17 18 19 20 21 22 23 24

693
FTUS43 KABR 232339
TAFMBG
TAF
KMBG 232339Z 2400/2424 05016G25KT P6SM BKN200
     FM240400 08017G24KT P6SM BKN025
     FM241000 03014KT P6SM OVC015
     FM241600 33015KT P6SM BKN030=

USA.gov is the U.S. government's official web portal to all federal, state and local government web resources and services.